North Berwick, Maine
Current Conditions -  °F | °C
As of 7:15 AM on Tuesday 27 Jan 2015 (Local Time) from KSFM Reporting Station
Broken Clouds Broken Clouds  
Wind Chill: -10°   Ceiling: 400
Heat Index: 10°   Visibility: 0.25mi
Dew Point:   Wind: 25mph
Humidity: 73%   Direction: 360°N
Pressure: 29.67"   Gusts: 39mph
Location:  43.3°N, 70.73°W
Report Text: KSFM 271215Z AUTO 36022G34KT 1/4SM BKN004 M12/M16 A2967 RMK AO1
Loading
Personal Weather Stations






























Interactive Weather Map New forecast layout! Learn more

10-Day Weather Forecast

Advertisements
Track Severe Weather on mobile